Etusivu
METAR-TAF:

METAR-TAF

Lentoasemat :

Kirsch Municipal Airport

Sturgis, Michigan, Yhdysvallat

Leveyspiiri: 41-48-46N, Pituuspiiri: 085-26-21W, korkeus merenpinnasta: 282 m

Tämänhetkinen sää

Tämä raportti tehtiin 16 minuuttia sitten, kello 09.56 UTC
Tuuli 9 kn lännestä/luoteesta
Lämpötila -2°C
Kosteus 74%
Ilmanpaine 1013 hPa
Näkyvyys: 16.1 km
Pilvistä 2200 ft:n korkeudessa

METAR: KIRS 150956Z AUTO 29009KT 10SM OVC022 M02/M06 A2991 RMK AO2 T10221060

Aika: 05:12 (10:12 UTC)


TAF: puuttuu

Säähavainnot ja -ennusteet yli 4000 lentoasemalta (METAR- ja TAF-raportit).

Käytössä olevat sääasemat on merkitty karttaan keltaisilla ja punaisilla pisteillä.

Aseta hiiri pisteen päälle nähdäksesi sääaseman nimen.

Klikkaa sitten nähdäksesi säähavainnot ja -ennusteet.

Kartan vaihtaminen: klikkaa mustalla rastilla varustettuja vihreitä pisteitä, niin voit zoomata sisään; viivalla varustettua vihreää pistettä, niin voit zoomata ulos tai vihreitä nuolia, niin pääset viereisille kartoille.


METAR-TAF: